createdAt,value
2024-02-24T00:00:34.780Z,3.74
2024-02-24T00:03:01.886Z,3.71
2024-02-24T00:05:29.045Z,3.67
2024-02-24T00:07:56.361Z,3.62
2024-02-24T00:10:23.793Z,3.61
2024-02-24T00:12:50.850Z,3.58
2024-02-24T00:15:17.989Z,3.55
2024-02-24T00:17:45.200Z,3.53
2024-02-24T00:20:12.756Z,3.53
2024-02-24T00:22:39.978Z,3.53
2024-02-24T00:25:07.517Z,3.55
2024-02-24T00:27:34.760Z,3.56
2024-02-24T00:30:01.970Z,3.56
2024-02-24T00:32:29.131Z,3.55
2024-02-24T00:34:56.274Z,3.55
2024-02-24T00:37:23.308Z,3.55
2024-02-24T00:39:50.391Z,3.57
2024-02-24T00:42:17.473Z,3.59
2024-02-24T00:44:44.561Z,3.58
2024-02-24T00:47:11.685Z,3.55
2024-02-24T00:49:38.748Z,3.53
2024-02-24T00:52:06.128Z,3.51
2024-02-24T00:54:33.188Z,3.46
2024-02-24T00:57:00.194Z,3.41
2024-02-24T00:59:28.045Z,3.38
2024-02-24T01:01:55.131Z,3.36
2024-02-24T01:04:25.756Z,3.33
2024-02-24T01:06:53.503Z,3.30
2024-02-24T01:09:22.001Z,3.26
2024-02-24T01:11:49.193Z,3.23
2024-02-24T01:14:16.500Z,3.23
2024-02-24T01:16:45.755Z,3.23
2024-02-24T01:19:13.146Z,3.24
2024-02-24T01:21:44.445Z,3.25
2024-02-24T01:24:15.340Z,3.23
2024-02-24T01:26:42.556Z,3.22
2024-02-24T01:29:09.745Z,3.22
2024-02-24T01:31:36.833Z,3.24
2024-02-24T01:34:03.998Z,3.24
2024-02-24T01:36:31.094Z,3.25
2024-02-24T01:38:58.173Z,3.26
2024-02-24T01:41:25.978Z,3.29
2024-02-24T01:43:53.050Z,3.30
2024-02-24T01:46:20.454Z,3.31
2024-02-24T01:48:47.758Z,3.33
2024-02-24T01:51:16.344Z,3.35
2024-02-24T01:53:44.326Z,3.36
2024-02-24T01:56:11.996Z,3.38
2024-02-24T01:58:40.130Z,3.40
2024-02-24T02:01:08.406Z,3.41
2024-02-24T02:03:37.483Z,3.44
2024-02-24T02:06:05.954Z,3.45
2024-02-24T02:08:33.269Z,3.43
2024-02-24T02:11:00.492Z,3.44
2024-02-24T02:13:27.679Z,3.47
2024-02-24T02:15:57.990Z,3.48
2024-02-24T02:18:25.259Z,3.48
2024-02-24T02:20:53.821Z,3.48
2024-02-24T02:23:21.466Z,3.51
2024-02-24T02:25:48.668Z,3.53
2024-02-24T02:28:15.813Z,3.54
2024-02-24T02:30:42.939Z,3.57
2024-02-24T02:33:10.699Z,3.58
2024-02-24T02:35:38.422Z,3.62
2024-02-24T02:38:09.316Z,3.64
2024-02-24T02:40:37.142Z,3.68
2024-02-24T02:43:04.620Z,3.69
2024-02-24T02:45:31.776Z,3.72
2024-02-24T02:47:59.022Z,3.75
2024-02-24T02:50:26.208Z,3.76
2024-02-24T02:52:53.253Z,3.79
2024-02-24T02:55:22.014Z,3.82
2024-02-24T02:57:50.247Z,3.88
2024-02-24T03:00:17.927Z,3.95
2024-02-24T03:02:45.084Z,4.01
2024-02-24T03:05:12.367Z,4.09
2024-02-24T03:07:39.572Z,4.14
2024-02-24T03:10:08.372Z,4.20
2024-02-24T03:12:35.620Z,4.28
2024-02-24T03:15:03.750Z,4.37
2024-02-24T03:17:30.929Z,4.43
2024-02-24T03:19:58.176Z,4.51
2024-02-24T03:22:28.365Z,4.57
2024-02-24T03:24:55.575Z,4.64
2024-02-24T03:27:22.656Z,4.70
2024-02-24T03:29:49.810Z,4.74
2024-02-24T03:32:17.110Z,4.78
2024-02-24T03:34:44.247Z,4.84
2024-02-24T03:37:11.388Z,4.88
2024-02-24T03:39:40.895Z,4.94
2024-02-24T03:42:07.987Z,4.96
2024-02-24T03:44:35.058Z,4.98
2024-02-24T03:47:02.559Z,4.98
2024-02-24T03:49:29.659Z,4.96
2024-02-24T03:51:56.896Z,4.92
2024-02-24T03:54:25.805Z,4.85
2024-02-24T03:56:53.257Z,4.77
2024-02-24T03:59:20.471Z,4.71
2024-02-24T04:01:47.984Z,4.62
2024-02-24T04:04:15.077Z,4.54
2024-02-24T04:06:45.699Z,4.48
2024-02-24T04:09:12.956Z,4.45
2024-02-24T04:11:40.540Z,4.47
2024-02-24T04:14:07.745Z,4.50
2024-02-24T04:16:34.800Z,4.52
2024-02-24T04:19:02.517Z,4.53
2024-02-24T04:21:29.679Z,4.52
2024-02-24T04:23:57.286Z,4.50
2024-02-24T04:26:24.465Z,4.48
2024-02-24T04:28:51.585Z,4.42
2024-02-24T04:31:18.896Z,4.38
2024-02-24T04:33:46.089Z,4.31
2024-02-24T04:36:13.268Z,4.31
2024-02-24T04:38:40.504Z,4.30
2024-02-24T04:41:07.721Z,4.35
2024-02-24T04:43:37.111Z,4.39
2024-02-24T04:46:05.191Z,4.46
2024-02-24T04:48:32.439Z,4.53
2024-02-24T04:51:02.858Z,4.57
2024-02-24T04:53:30.825Z,4.64
2024-02-24T04:55:57.945Z,4.68
2024-02-24T04:58:26.162Z,4.73
2024-02-24T05:00:53.337Z,4.75
2024-02-24T05:03:20.644Z,4.79
2024-02-24T05:05:47.927Z,4.80
2024-02-24T05:08:15.078Z,4.80
2024-02-24T05:10:42.279Z,4.78
2024-02-24T05:13:09.343Z,4.74
2024-02-24T05:15:36.495Z,4.72
2024-02-24T05:18:04.104Z,4.70
2024-02-24T05:20:32.291Z,4.70
2024-02-24T05:22:59.519Z,4.67
2024-02-24T05:25:26.572Z,4.65
2024-02-24T05:27:54.475Z,4.58
2024-02-24T05:30:21.521Z,4.51
2024-02-24T05:32:48.755Z,4.47
2024-02-24T05:35:16.153Z,4.46
2024-02-24T05:37:45.397Z,4.47
2024-02-24T05:40:15.992Z,4.48
2024-02-24T05:42:43.614Z,4.49
2024-02-24T05:45:13.061Z,4.50
2024-02-24T05:47:40.224Z,4.50
2024-02-24T05:50:08.082Z,4.53
2024-02-24T05:52:35.254Z,4.53
2024-02-24T05:55:08.489Z,4.55
2024-02-24T05:57:35.425Z,4.56
2024-02-24T06:00:05.879Z,4.57
2024-02-24T06:02:39.569Z,4.59
2024-02-24T06:05:07.188Z,4.61
2024-02-24T06:07:34.708Z,4.61
2024-02-24T06:10:01.897Z,4.61
2024-02-24T06:12:28.903Z,4.63
2024-02-24T06:14:56.002Z,4.63
2024-02-24T06:17:23.223Z,4.64
2024-02-24T06:19:50.308Z,4.65
2024-02-24T06:22:17.531Z,4.68
2024-02-24T06:24:44.679Z,4.70
2024-02-24T06:27:11.753Z,4.73
2024-02-24T06:29:38.865Z,4.73
2024-02-24T06:32:06.865Z,4.74
2024-02-24T06:34:34.000Z,4.75
2024-02-24T06:37:01.137Z,4.77
2024-02-24T06:39:28.198Z,4.75
2024-02-24T06:41:55.658Z,4.77
2024-02-24T06:44:22.776Z,4.79
2024-02-24T06:46:51.783Z,4.79
2024-02-24T06:49:21.245Z,4.78
2024-02-24T06:51:48.406Z,4.80
2024-02-24T06:54:15.411Z,4.82
2024-02-24T06:56:43.521Z,4.82
2024-02-24T06:59:10.709Z,4.86
2024-02-24T07:01:37.786Z,4.89
2024-02-24T07:04:05.149Z,4.92
2024-02-24T07:06:32.270Z,4.95
2024-02-24T07:08:59.480Z,5.00
2024-02-24T07:11:26.764Z,5.04
2024-02-24T07:13:53.973Z,5.06
2024-02-24T07:16:21.009Z,5.10
2024-02-24T07:18:48.104Z,5.15
2024-02-24T07:21:15.264Z,5.18
2024-02-24T07:23:42.408Z,5.24
2024-02-24T07:26:09.715Z,5.31
2024-02-24T07:28:36.759Z,5.37
2024-02-24T07:31:04.284Z,5.45
2024-02-24T07:33:31.474Z,5.51
2024-02-24T07:35:58.710Z,5.57
2024-02-24T07:38:25.889Z,5.65
2024-02-24T07:40:52.975Z,5.71
2024-02-24T07:43:20.072Z,5.76
2024-02-24T07:45:47.201Z,5.80
2024-02-24T07:48:14.558Z,5.85
2024-02-24T07:50:41.876Z,5.89
2024-02-24T07:53:09.415Z,5.96
2024-02-24T07:55:36.564Z,6.06
2024-02-24T07:58:04.713Z,6.16
2024-02-24T08:00:31.843Z,6.28
2024-02-24T08:02:59.080Z,6.37
2024-02-24T08:05:26.182Z,6.46
2024-02-24T08:07:53.273Z,6.56
2024-02-24T08:10:20.416Z,6.65
2024-02-24T08:12:50.062Z,6.79
2024-02-24T08:15:17.202Z,6.95
2024-02-24T08:17:44.373Z,7.14
2024-02-24T08:20:12.096Z,7.36
2024-02-24T08:22:40.310Z,7.59
2024-02-24T08:25:08.278Z,7.83
2024-02-24T08:27:35.377Z,8.05
2024-02-24T08:30:02.518Z,8.22
2024-02-24T08:32:31.134Z,8.28
2024-02-24T08:34:58.290Z,8.26
2024-02-24T08:37:25.344Z,8.22
2024-02-24T08:39:52.373Z,8.15
2024-02-24T08:42:19.451Z,8.05
2024-02-24T08:44:46.619Z,7.96
2024-02-24T08:47:13.830Z,7.88
2024-02-24T08:49:40.938Z,7.81
2024-02-24T08:52:09.420Z,7.75
2024-02-24T08:54:37.580Z,7.73
2024-02-24T08:57:07.093Z,7.73
2024-02-24T08:59:34.233Z,7.73
2024-02-24T09:02:01.354Z,7.74
2024-02-24T09:04:28.484Z,7.72
2024-02-24T09:06:55.608Z,7.68
2024-02-24T09:09:22.710Z,7.65
2024-02-24T09:11:50.839Z,7.61
2024-02-24T09:14:18.185Z,7.58
2024-02-24T09:16:45.209Z,7.50
2024-02-24T09:19:12.376Z,7.41
2024-02-24T09:21:39.723Z,7.32
2024-02-24T09:24:06.887Z,7.20
2024-02-24T09:26:34.077Z,6.89
2024-02-24T09:29:09.050Z,6.59
2024-02-24T09:32:19.172Z,6.24
2024-02-24T09:34:46.647Z,6.04
2024-02-24T09:37:13.725Z,5.93
2024-02-24T09:39:42.364Z,5.81
2024-02-24T09:42:10.773Z,5.75
2024-02-24T09:44:39.876Z,5.67
2024-02-24T09:47:08.442Z,5.63
2024-02-24T09:49:35.547Z,5.60
2024-02-24T09:52:02.813Z,5.57
2024-02-24T09:54:30.324Z,5.58
2024-02-24T09:56:58.823Z,5.58
2024-02-24T09:59:26.993Z,5.59
2024-02-24T10:01:54.091Z,5.69
2024-02-24T10:04:22.808Z,5.88
2024-02-24T10:06:49.939Z,6.14
2024-02-24T10:09:17.089Z,6.48
2024-02-24T10:11:44.274Z,6.82
2024-02-24T10:14:11.771Z,7.09
2024-02-24T10:16:39.542Z,7.27
2024-02-24T10:19:07.707Z,7.39
2024-02-24T10:21:35.620Z,7.31
2024-02-24T10:24:06.240Z,7.23
2024-02-24T10:26:33.472Z,7.20
2024-02-24T10:29:07.926Z,7.20
2024-02-24T10:31:36.237Z,7.27
2024-02-24T10:34:05.313Z,7.50
2024-02-24T10:36:34.135Z,7.87
2024-02-24T10:39:02.730Z,8.23
2024-02-24T10:41:31.422Z,8.41
2024-02-24T10:44:10.454Z,8.46
2024-02-24T10:46:45.740Z,8.46
2024-02-24T10:49:13.104Z,8.47
2024-02-24T10:51:47.046Z,8.49
2024-02-24T10:54:22.716Z,8.61
2024-02-24T10:56:59.198Z,8.74
2024-02-24T10:59:33.822Z,8.80
2024-02-24T11:02:03.840Z,8.88
2024-02-24T11:04:36.719Z,8.85
2024-02-24T11:07:19.783Z,8.70
2024-02-24T11:09:55.176Z,8.58
2024-02-24T11:12:25.972Z,8.41
2024-02-24T11:14:56.153Z,8.23
2024-02-24T11:18:00.045Z,8.12
2024-02-24T11:20:34.548Z,7.97
2024-02-24T11:23:27.901Z,7.78
2024-02-24T11:26:22.352Z,7.59
2024-02-24T11:29:03.477Z,7.43
2024-02-24T11:31:37.828Z,7.34
2024-02-24T11:34:11.782Z,7.49
2024-02-24T11:36:42.134Z,7.83
2024-02-24T11:39:15.126Z,8.22
2024-02-24T11:41:42.887Z,8.22
2024-02-24T11:44:11.590Z,8.16
2024-02-24T11:46:38.915Z,8.00
2024-02-24T11:49:06.201Z,7.96
2024-02-24T11:51:36.175Z,7.91
2024-02-24T11:54:05.592Z,8.00
2024-02-24T11:56:33.712Z,8.19
2024-02-24T11:59:02.011Z,8.44
2024-02-24T12:01:30.359Z,8.52
2024-02-24T12:04:01.056Z,8.50
2024-02-24T12:06:32.154Z,8.48
2024-02-24T12:09:01.152Z,8.46
2024-02-24T12:11:29.031Z,8.38
2024-02-24T12:13:56.280Z,8.22
2024-02-24T12:16:25.194Z,8.05
2024-02-24T12:18:52.558Z,7.75
2024-02-24T12:21:19.915Z,7.40
2024-02-24T12:23:47.160Z,7.12
2024-02-24T12:26:16.822Z,6.94
2024-02-24T12:28:47.584Z,6.90
2024-02-24T12:31:15.939Z,6.94
2024-02-24T12:33:46.395Z,7.00
2024-02-24T12:36:15.700Z,7.01
2024-02-24T12:38:44.378Z,7.05
2024-02-24T12:41:13.957Z,7.10
2024-02-24T12:43:42.682Z,7.18
2024-02-24T12:46:10.824Z,7.30
2024-02-24T12:48:41.353Z,7.39
2024-02-24T12:51:10.947Z,7.52
2024-02-24T12:53:38.166Z,7.64
2024-02-24T12:56:05.408Z,7.71
2024-02-24T12:58:35.146Z,7.76
2024-02-24T13:01:02.572Z,7.76
2024-02-24T13:03:29.976Z,7.73
2024-02-24T13:05:57.162Z,7.65
2024-02-24T13:08:24.392Z,7.58
2024-02-24T13:10:51.837Z,7.53
2024-02-24T13:13:18.975Z,7.52
2024-02-24T13:15:47.576Z,7.50
2024-02-24T13:18:14.924Z,7.47
2024-02-24T13:20:42.196Z,7.37
2024-02-24T13:23:09.431Z,7.28
2024-02-24T13:25:36.782Z,7.20
2024-02-24T13:28:05.056Z,7.14
2024-02-24T13:30:32.160Z,7.10
2024-02-24T13:32:59.402Z,7.03
2024-02-24T13:35:26.695Z,7.03
2024-02-24T13:37:53.896Z,7.09
2024-02-24T13:40:22.646Z,7.19
2024-02-24T13:42:49.989Z,7.27
2024-02-24T13:45:17.854Z,7.34
2024-02-24T13:47:45.178Z,7.46
2024-02-24T13:50:12.408Z,7.57
2024-02-24T13:52:39.632Z,7.63
2024-02-24T13:55:11.890Z,7.66
2024-02-24T13:57:38.980Z,7.70
2024-02-24T14:00:11.740Z,7.75
2024-02-24T14:02:39.622Z,7.77
2024-02-24T14:05:07.115Z,7.76
2024-02-24T14:07:34.243Z,7.75
2024-02-24T14:10:02.412Z,7.76
2024-02-24T14:12:30.115Z,7.83
2024-02-24T14:14:57.384Z,7.89
2024-02-24T14:17:28.950Z,7.95
2024-02-24T14:19:57.856Z,8.02
2024-02-24T14:22:25.036Z,8.11
2024-02-24T14:24:52.134Z,8.17
2024-02-24T14:27:19.679Z,8.22
2024-02-24T14:29:47.473Z,8.27
2024-02-24T14:32:16.575Z,8.27
2024-02-24T14:34:44.601Z,8.27
2024-02-24T14:37:11.821Z,8.22
2024-02-24T14:39:39.682Z,8.16
2024-02-24T14:42:06.951Z,8.11
2024-02-24T14:44:34.187Z,8.04
2024-02-24T14:47:06.364Z,8.01
2024-02-24T14:49:34.254Z,7.95
2024-02-24T14:52:02.389Z,7.87
2024-02-24T14:54:39.650Z,7.80
2024-02-24T14:57:13.150Z,7.81
2024-02-24T14:59:43.634Z,7.87
2024-02-24T15:02:17.134Z,7.97
2024-02-24T15:04:49.641Z,8.00
2024-02-24T15:07:16.746Z,7.98
2024-02-24T15:09:50.579Z,7.95
2024-02-24T15:12:20.286Z,7.98
2024-02-24T15:14:47.378Z,8.00
2024-02-24T15:17:16.810Z,8.03
2024-02-24T15:19:46.441Z,8.04
2024-02-24T15:22:13.754Z,8.01
2024-02-24T15:24:45.055Z,7.99
2024-02-24T15:27:13.470Z,7.93
2024-02-24T15:29:43.621Z,7.86
2024-02-24T15:32:11.267Z,7.80
2024-02-24T15:34:39.137Z,7.69
2024-02-24T15:37:06.792Z,7.63
2024-02-24T15:39:37.273Z,7.55
2024-02-24T15:42:04.491Z,7.53
2024-02-24T15:44:31.642Z,7.52
2024-02-24T15:46:58.838Z,7.58
2024-02-24T15:49:26.466Z,7.58
2024-02-24T15:51:55.445Z,7.56
2024-02-24T15:54:23.676Z,7.52
2024-02-24T15:56:53.519Z,7.47
2024-02-24T15:59:23.944Z,7.46
2024-02-24T16:01:51.017Z,7.46
2024-02-24T16:04:18.128Z,7.44
2024-02-24T16:06:45.233Z,7.41
2024-02-24T16:09:14.165Z,7.43
2024-02-24T16:11:41.372Z,7.44
2024-02-24T16:14:08.569Z,7.41
2024-02-24T16:16:35.673Z,7.32
2024-02-24T16:19:02.884Z,7.20
2024-02-24T16:21:30.018Z,7.07
2024-02-24T16:23:57.220Z,6.90
2024-02-24T16:26:24.302Z,6.75
2024-02-24T16:28:51.442Z,6.59
2024-02-24T16:31:18.564Z,6.44
2024-02-24T16:33:46.309Z,6.33
2024-02-24T16:36:13.683Z,6.23
2024-02-24T16:38:41.207Z,6.10
2024-02-24T16:41:08.352Z,5.98
2024-02-24T16:43:36.055Z,5.86
2024-02-24T16:46:03.727Z,5.74
2024-02-24T16:48:30.956Z,5.64
2024-02-24T16:50:58.189Z,5.54
2024-02-24T16:53:25.334Z,5.45
2024-02-24T16:55:52.461Z,5.36
2024-02-24T16:58:19.550Z,5.30
2024-02-24T17:00:46.906Z,5.22
2024-02-24T17:03:14.098Z,5.15
2024-02-24T17:05:41.531Z,5.03
2024-02-24T17:08:08.638Z,4.92
2024-02-24T17:10:40.359Z,4.81
2024-02-24T17:13:09.799Z,4.70
2024-02-24T17:15:38.784Z,4.61
2024-02-24T17:18:07.249Z,4.52
2024-02-24T17:20:35.872Z,4.44
2024-02-24T17:23:10.291Z,4.39
2024-02-24T17:25:37.577Z,4.34
2024-02-24T17:28:07.527Z,4.29
2024-02-24T17:30:36.962Z,4.26
2024-02-24T17:33:05.858Z,4.26
2024-02-24T17:35:33.105Z,4.26
2024-02-24T17:38:03.264Z,4.26
2024-02-24T17:40:30.385Z,4.28
2024-02-24T17:42:57.873Z,4.33
2024-02-24T17:45:25.264Z,4.40
2024-02-24T17:47:52.782Z,4.48
2024-02-24T17:50:20.053Z,4.55
2024-02-24T17:52:47.167Z,4.63
2024-02-24T17:55:14.334Z,4.66
2024-02-24T17:57:42.588Z,4.65
2024-02-24T18:00:10.429Z,4.60
2024-02-24T18:02:38.444Z,4.54
2024-02-24T18:05:06.134Z,4.48
2024-02-24T18:07:33.197Z,4.46
2024-02-24T18:10:00.360Z,4.44
2024-02-24T18:12:28.553Z,4.43
2024-02-24T18:14:55.707Z,4.42
2024-02-24T18:17:22.986Z,4.39
2024-02-24T18:19:50.154Z,4.33
2024-02-24T18:22:17.256Z,4.31
2024-02-24T18:24:45.520Z,4.28
2024-02-24T18:27:13.242Z,4.26
2024-02-24T18:29:40.402Z,4.24
2024-02-24T18:32:08.051Z,4.24
2024-02-24T18:34:35.344Z,4.22
2024-02-24T18:37:02.824Z,4.19
2024-02-24T18:39:30.273Z,4.15
2024-02-24T18:41:59.005Z,4.13
2024-02-24T18:44:26.213Z,4.10
2024-02-24T18:46:53.872Z,4.07
2024-02-24T18:49:22.234Z,4.04
2024-02-24T18:51:49.835Z,4.06
2024-02-24T18:54:16.883Z,4.07
2024-02-24T18:56:44.047Z,4.08
2024-02-24T18:59:11.124Z,4.10
2024-02-24T19:01:38.305Z,4.08
2024-02-24T19:04:05.703Z,4.07
2024-02-24T19:06:32.901Z,4.06
2024-02-24T19:09:00.154Z,4.06
2024-02-24T19:11:29.318Z,4.05
2024-02-24T19:13:56.501Z,4.07
2024-02-24T19:16:23.605Z,4.08
2024-02-24T19:18:51.200Z,4.11
2024-02-24T19:21:18.552Z,4.14
2024-02-24T19:23:45.720Z,4.17
2024-02-24T19:26:14.421Z,4.24
2024-02-24T19:28:41.709Z,4.28
2024-02-24T19:31:08.797Z,4.31
2024-02-24T19:33:36.092Z,4.35
2024-02-24T19:36:04.020Z,4.37
2024-02-24T19:38:31.205Z,4.39
2024-02-24T19:40:58.394Z,4.40
2024-02-24T19:43:25.550Z,4.42
2024-02-24T19:45:54.284Z,4.47
2024-02-24T19:48:21.504Z,4.50
2024-02-24T19:50:49.568Z,4.57
2024-02-24T19:53:16.711Z,4.65
2024-02-24T19:55:43.825Z,4.73
2024-02-24T19:58:20.598Z,4.75
2024-02-24T20:00:51.798Z,4.77
2024-02-24T20:03:18.982Z,4.79
2024-02-24T20:05:46.122Z,4.81
2024-02-24T20:08:13.163Z,4.84
2024-02-24T20:10:40.183Z,4.86
2024-02-24T20:13:07.183Z,4.87
2024-02-24T20:15:35.026Z,4.90
2024-02-24T20:18:02.341Z,4.90
2024-02-24T20:20:29.536Z,4.94
2024-02-24T20:22:57.360Z,4.93
2024-02-24T20:25:24.922Z,4.95
2024-02-24T20:27:52.116Z,4.99
2024-02-24T20:30:22.319Z,5.06
2024-02-24T20:32:55.635Z,5.10
2024-02-24T20:35:24.196Z,5.15
2024-02-24T20:37:51.504Z,5.19
2024-02-24T20:40:18.515Z,5.20
2024-02-24T20:42:45.876Z,5.24
2024-02-24T20:45:13.056Z,5.29
2024-02-24T20:47:40.176Z,5.33
2024-02-24T20:50:08.273Z,5.35
2024-02-24T20:52:37.176Z,5.37
2024-02-24T20:55:05.439Z,5.38
2024-02-24T20:57:32.674Z,5.40
2024-02-24T20:59:59.869Z,5.41
2024-02-24T21:02:26.975Z,5.42
2024-02-24T21:04:54.009Z,5.41
2024-02-24T21:07:21.126Z,5.41
2024-02-24T21:09:48.936Z,5.42
2024-02-24T21:12:16.013Z,5.43
2024-02-24T21:14:43.150Z,5.42
2024-02-24T21:17:10.227Z,5.41
2024-02-24T21:19:37.720Z,5.44
2024-02-24T21:22:05.160Z,5.43
2024-02-24T21:24:32.505Z,5.42
2024-02-24T21:27:00.558Z,5.40
2024-02-24T21:29:27.942Z,5.38
2024-02-24T21:31:55.403Z,5.35
2024-02-24T21:34:22.813Z,5.33
2024-02-24T21:36:50.353Z,5.34
2024-02-24T21:39:17.432Z,5.34
2024-02-24T21:41:44.580Z,5.33
2024-02-24T21:44:11.638Z,5.33
2024-02-24T21:46:38.678Z,5.34
2024-02-24T21:49:05.895Z,5.31
2024-02-24T21:51:33.060Z,5.31
2024-02-24T21:54:02.727Z,5.28
2024-02-24T21:56:31.792Z,5.24
2024-02-24T21:58:58.806Z,5.20
2024-02-24T22:01:25.845Z,5.18
2024-02-24T22:03:53.513Z,5.12
2024-02-24T22:06:20.920Z,5.08
2024-02-24T22:08:48.152Z,5.04
2024-02-24T22:11:15.238Z,4.97
2024-02-24T22:13:42.608Z,4.92
2024-02-24T22:16:12.976Z,4.85
2024-02-24T22:18:40.567Z,4.80
2024-02-24T22:21:09.501Z,4.76
2024-02-24T22:23:36.972Z,4.73
2024-02-24T22:26:04.418Z,4.70
2024-02-24T22:28:31.569Z,4.68
2024-02-24T22:30:58.697Z,4.65
2024-02-24T22:33:26.133Z,4.62
2024-02-24T22:35:54.250Z,4.61
2024-02-24T22:38:22.198Z,4.59
2024-02-24T22:40:49.342Z,4.58
2024-02-24T22:43:16.972Z,4.60
2024-02-24T22:45:44.299Z,4.58
2024-02-24T22:48:11.709Z,4.60
2024-02-24T22:50:38.998Z,4.63
2024-02-24T22:53:06.163Z,4.63
2024-02-24T22:55:35.325Z,4.64
2024-02-24T22:58:02.643Z,4.65
2024-02-24T23:00:29.839Z,4.67
2024-02-24T23:02:57.147Z,4.65
2024-02-24T23:05:24.383Z,4.67
2024-02-24T23:07:51.509Z,4.65
2024-02-24T23:10:18.673Z,4.65
2024-02-24T23:12:45.984Z,4.65
2024-02-24T23:15:13.398Z,4.64
2024-02-24T23:17:41.133Z,4.62
2024-02-24T23:20:09.091Z,4.64
2024-02-24T23:22:36.544Z,4.65
2024-02-24T23:25:03.987Z,4.68
2024-02-24T23:27:31.678Z,4.72
2024-02-24T23:29:58.968Z,4.78
2024-02-24T23:32:26.437Z,4.82
2024-02-24T23:34:53.610Z,4.87
2024-02-24T23:37:20.876Z,4.90
2024-02-24T23:39:48.072Z,4.93
2024-02-24T23:42:15.336Z,4.96
2024-02-24T23:44:42.444Z,4.97
2024-02-24T23:47:09.505Z,4.96
2024-02-24T23:49:36.670Z,4.96
2024-02-24T23:52:04.063Z,4.94
2024-02-24T23:54:31.113Z,4.91
2024-02-24T23:56:58.223Z,4.91
2024-02-24T23:59:25.295Z,4.89
